Time;durP1;ratioP1;P1;durP2;ratioP2;P2;SDS_P1;SDS_P2;PMS_P1;PMS_P2;Temp;Humidity;BMP_temperature;BMP_pressure;BME280_temperature;BME280_humidity;BME280_pressure;Samples;Min_cycle;Max_cycle;Signal;HPM_P1;HPM_P2
2021/01/04 00:01:59;;;;;;;;;;;2.90;90.80;;;;;;5020105;28;20108;-80
2021/01/04 00:04:40;;;;;;;76.32;34.47;;;2.90;90.80;;;;;;5023697;28;19910;-79
2021/01/04 00:07:17;;;;;;;70.28;32.35;;;2.90;90.90;;;;;;5015700;28;20053;-78
2021/01/04 00:10:24;;;;;;;70.45;31.73;;;2.90;90.80;;;;;;5031027;28;20041;-79
2021/01/04 00:13:09;;;;;;;78.40;36.20;;;3.00;90.80;;;;;;5013417;28;20026;-79
2021/01/04 00:15:48;;;;;;;77.90;35.28;;;3.00;90.80;;;;;;5013258;28;20034;-80
2021/01/04 00:18:38;;;;;;;69.72;33.95;;;3.00;90.90;;;;;;5013904;28;20030;-80
2021/01/04 00:21:27;;;;;;;69.03;33.78;;;3.00;90.80;;;;;;5040341;28;20056;-79
2021/01/04 00:24:19;;;;;;;83.10;35.95;;;3.00;90.80;;;;;;5018235;28;20040;-78
2021/01/04 00:26:58;;;;;;;80.35;33.83;;;3.00;91.00;;;;;;5029340;28;20044;-79
2021/01/04 00:29:24;;;;;;;72.72;33.90;;;3.00;90.90;;;;;;5027116;28;20017;-79
2021/01/04 00:31:58;;;;;;;70.00;32.25;;;3.00;91.00;;;;;;5026344;28;20486;-80
2021/01/04 00:34:46;;;;;;;73.40;32.72;;;3.00;91.00;;;;;;5033615;28;20032;-78
2021/01/04 00:37:39;;;;;;;75.72;33.85;;;3.00;91.10;;;;;;5033475;28;20057;-79
2021/01/04 00:40:20;;;;;;;71.82;32.25;;;2.90;91.20;;;;;;5033291;28;20467;-79
2021/01/04 00:42:50;;;;;;;75.68;35.17;;;2.90;91.10;;;;;;5033287;28;20079;-80
2021/01/04 00:45:15;;;;;;;76.83;35.33;;;3.00;91.10;;;;;;5032816;28;20116;-79
2021/01/04 00:47:50;;;;;;;81.38;35.58;;;2.90;91.00;;;;;;5034314;28;20342;-80
2021/01/04 00:50:46;;;;;;;76.28;34.28;;;2.90;91.10;;;;;;5040984;28;20021;-80
2021/01/04 00:53:21;;;;;;;81.75;34.53;;;3.00;91.10;;;;;;5052886;28;20459;-79
2021/01/04 00:56:05;;;;;;;81.75;35.80;;;3.00;91.10;;;;;;5052893;28;20051;-79
2021/01/04 00:58:58;;;;;;;95.60;39.72;;;3.00;91.10;;;;;;5053583;28;20029;-79
2021/01/04 01:01:27;;;;;;;86.82;38.88;;;3.00;91.20;;;;;;5053121;28;20029;-80
2021/01/04 01:04:05;;;;;;;100.63;41.35;;;2.90;91.20;;;;;;5053481;28;20435;-80
2021/01/04 01:06:52;;;;;;;89.47;37.50;;;2.90;91.40;;;;;;5053402;28;20025;-79
2021/01/04 01:09:19;;;;;;;84.45;37.30;;;2.90;91.30;;;;;;5053135;28;20067;-80
2021/01/04 01:12:09;;;;;;;92.43;39.80;;;2.90;91.20;;;;;;5034294;28;20101;-79
2021/01/04 01:15:03;;;;;;;86.67;37.57;;;2.90;91.20;;;;;;5032819;28;20021;-79
2021/01/04 01:17:42;;;;;;;77.18;33.83;;;2.90;91.40;;;;;;5032551;28;20533;-79
2021/01/04 01:20:16;;;;;;;76.88;33.40;;;2.90;91.20;;;;;;5032758;28;20029;-79
2021/01/04 01:22:43;;;;;;;79.97;34.88;;;2.90;91.20;;;;;;5033046;28;20124;-79
2021/01/04 01:25:13;;;;;;;76.38;33.78;;;2.90;91.10;;;;;;5032348;28;20031;-81
2021/01/04 01:27:57;;;;;;;85.78;38.22;;;3.00;91.10;;;;;;5031656;28;20013;-79
2021/01/04 01:30:32;;;;;;;73.57;32.78;;;2.90;91.20;;;;;;5043361;28;20064;-79
2021/01/04 01:33:25;;;;;;;78.38;35.55;;;3.00;91.10;;;;;;5052822;28;20085;-78
2021/01/04 01:36:18;;;;;;;77.47;35.28;;;3.00;91.00;;;;;;5052822;28;20467;-80
2021/01/04 01:38:56;;;;;;;79.97;36.35;;;3.00;91.00;;;;;;5045861;28;20030;-79
2021/01/04 01:42:04;;;;;;;84.78;35.60;;;3.00;91.00;;;;;;5032803;28;20407;-80
2021/01/04 01:44:45;;;;;;;70.82;33.33;;;2.90;91.00;;;;;;5014136;28;20056;-79
2021/01/04 01:47:30;;;;;;;78.90;35.38;;;2.90;91.00;;;;;;5032806;28;20025;-79
2021/01/04 01:50:11;;;;;;;68.35;31.50;;;2.90;91.10;;;;;;5031927;28;20021;-79
2021/01/04 01:53:12;;;;;;;70.07;31.75;;;2.90;91.00;;;;;;5031975;28;20025;-79
2021/01/04 01:55:56;;;;;;;67.68;31.40;;;3.00;91.00;;;;;;5011559;28;20479;-79
2021/01/04 01:58:51;;;;;;;76.97;34.83;;;3.00;91.00;;;;;;5032979;28;20037;-79
2021/01/04 02:01:46;;;;;;;63.85;30.33;;;2.90;91.10;;;;;;5031517;28;20017;-79
2021/01/04 02:04:46;;;;;;;67.35;33.95;;;2.90;91.10;;;;;;5032179;28;20075;-79
2021/01/04 02:07:37;;;;;;;69.97;33.55;;;2.90;91.40;;;;;;5025990;28;20033;-79
2021/01/04 02:10:16;;;;;;;66.68;30.17;;;2.90;91.10;;;;;;5039785;28;20039;-79
2021/01/04 02:13:08;;;;;;;62.17;29.90;;;2.90;91.10;;;;;;5052076;28;20115;-79
2021/01/04 02:15:54;;;;;;;65.35;29.73;;;2.90;91.00;;;;;;5052308;28;20040;-79
2021/01/04 02:18:49;;;;;;;61.22;27.98;;;2.80;91.20;;;;;;5052264;28;20025;-79
2021/01/04 02:21:18;;;;;;;58.67;26.75;;;2.90;91.10;;;;;;5051833;28;20071;-79
2021/01/04 02:24:02;;;;;;;56.40;26.65;;;2.90;91.10;;;;;;5052986;28;20028;-79
2021/01/04 02:26:28;;;;;;;53.45;26.50;;;2.90;91.00;;;;;;5051657;28;20462;-79
2021/01/04 02:29:05;;;;;;;48.15;24.98;;;3.00;91.00;;;;;;5051577;28;20021;-79
2021/01/04 02:31:35;;;;;;;53.83;26.50;;;2.90;90.90;;;;;;5013207;28;20030;-79
2021/01/04 02:34:04;;;;;;;53.70;26.60;;;3.00;90.90;;;;;;5011928;28;20029;-79
2021/01/04 02:36:32;;;;;;;56.03;27.42;;;3.00;90.80;;;;;;5013083;28;20022;-79
2021/01/04 02:39:04;;;;;;;48.75;24.58;;;3.00;90.90;;;;;;5011908;28;20092;-79
2021/01/04 02:42:17;;;;;;;51.55;26.58;;;2.90;90.90;;;;;;5012009;28;20076;-79
2021/01/04 02:44:45;;;;;;;53.38;25.45;;;3.00;90.90;;;;;;5020167;28;20062;-79
2021/01/04 02:47:42;;;;;;;48.72;24.77;;;2.90;90.90;;;;;;5012082;28;20084;-79
2021/01/04 02:50:26;;;;;;;53.45;25.60;;;3.00;90.80;;;;;;5024813;28;20092;-79
2021/01/04 02:53:03;;;;;;;52.55;26.67;;;3.00;90.80;;;;;;5032522;28;20026;-79
2021/01/04 02:55:46;;;;;;;48.90;24.70;;;3.00;90.80;;;;;;5032198;28;20383;-84
2021/01/04 02:58:30;;;;;;;52.22;25.35;;;3.00;90.80;;;;;;5033408;28;20112;-85
2021/01/04 03:01:04;;;;;;;53.97;26.52;;;3.00;90.70;;;;;;5032341;28;20472;-85
2021/01/04 03:03:32;;;;;;;52.58;25.73;;;2.90;90.80;;;;;;5032307;28;20426;-84
2021/01/04 03:06:00;;;;;;;50.17;24.83;;;3.00;90.90;;;;;;5032278;28;20099;-85
2021/01/04 03:08:26;;;;;;;52.45;24.75;;;3.00;90.80;;;;;;5033523;28;20030;-85
2021/01/04 03:10:52;;;;;;;55.53;25.50;;;3.00;90.80;;;;;;5032732;28;20103;-85
2021/01/04 03:13:31;;;;;;;49.05;23.70;;;3.00;90.80;;;;;;5035822;28;20030;-85
2021/01/04 03:16:00;;;;;;;54.53;25.92;;;3.10;90.80;;;;;;5035823;28;20052;-85
2021/01/04 03:18:31;;;;;;;60.85;27.30;;;3.10;90.80;;;;;;5036058;28;20442;-85
2021/01/04 03:20:57;;;;;;;54.47;26.65;;;3.00;90.70;;;;;;5035670;28;20028;-85
2021/01/04 03:23:23;;;;;;;51.40;25.02;;;3.00;91.10;;;;;;5036754;28;20029;-85
2021/01/04 03:25:57;;;;;;;48.80;25.27;;;3.00;90.80;;;;;;5035634;28;20029;-85
2021/01/04 03:28:22;;;;;;;56.15;27.40;;;3.10;90.70;;;;;;5035624;28;20040;-85
2021/01/04 03:30:48;;;;;;;58.03;28.77;;;3.10;90.70;;;;;;5041717;28;20025;-85
2021/01/04 03:33:15;;;;;;;59.65;29.30;;;3.10;90.60;;;;;;5037758;28;20033;-85
2021/01/04 03:35:40;;;;;;;53.80;26.92;;;3.00;90.70;;;;;;5035574;28;20032;-85
2021/01/04 03:38:07;;;;;;;57.45;26.65;;;3.00;90.80;;;;;;5035224;28;20026;-85
2021/01/04 03:40:32;;;;;;;52.00;25.45;;;3.00;90.80;;;;;;5035587;28;20022;-85
2021/01/04 03:42:58;;;;;;;54.13;27.05;;;3.00;90.80;;;;;;5035440;28;20382;-85
2021/01/04 03:45:24;;;;;;;56.38;27.10;;;3.00;90.80;;;;;;5039789;28;20378;-85
2021/01/04 03:47:49;;;;;;;56.05;26.20;;;3.00;90.80;;;;;;5055031;28;20029;-85
2021/01/04 03:50:16;;;;;;;51.65;23.50;;;3.00;90.80;;;;;;5055437;28;20040;-84
2021/01/04 03:52:45;;;;;;;53.03;25.95;;;3.00;90.70;;;;;;5054502;28;20115;-85
2021/01/04 03:55:12;;;;;;;59.20;26.85;;;3.00;90.70;;;;;;5055455;28;20147;-85
2021/01/04 03:57:37;;;;;;;57.63;27.05;;;2.90;90.70;;;;;;5054577;28;20379;-85
2021/01/04 04:00:07;;;;;;;47.70;23.80;;;3.00;90.80;;;;;;5054672;28;20032;-85
2021/01/04 04:02:33;;;;;;;51.03;25.88;;;3.00;90.70;;;;;;5054368;28;20043;-85
2021/01/04 04:04:58;;;;;;;47.55;23.55;;;3.00;90.80;;;;;;5054062;28;20037;-85
2021/01/04 04:07:24;;;;;;;48.15;22.92;;;3.00;90.70;;;;;;5054384;28;20470;-84
2021/01/04 04:09:50;;;;;;;53.58;25.50;;;3.10;90.70;;;;;;5054397;28;20052;-85
2021/01/04 04:12:15;;;;;;;52.22;24.70;;;3.10;90.60;;;;;;5054289;28;20029;-85
2021/01/04 04:14:46;;;;;;;61.20;26.50;;;3.10;90.60;;;;;;5054317;28;20036;-84
2021/01/04 04:17:12;;;;;;;56.85;27.63;;;3.10;90.50;;;;;;5037006;28;20391;-85
2021/01/04 04:19:37;;;;;;;52.03;27.17;;;3.10;90.50;;;;;;5035829;28;20052;-85
2021/01/04 04:22:03;;;;;;;50.25;25.50;;;3.10;90.50;;;;;;5034387;28;20022;-85
2021/01/04 04:24:29;;;;;;;51.60;26.40;;;3.10;90.50;;;;;;5033870;28;20483;-85
2021/01/04 04:26:55;;;;;;;50.08;25.73;;;3.10;90.50;;;;;;5034194;28;20029;-85
2021/01/04 04:29:20;;;;;;;50.30;24.92;;;3.10;90.50;;;;;;5034008;28;20029;-85
2021/01/04 04:31:48;;;;;;;48.70;25.00;;;3.10;90.50;;;;;;5049003;28;20021;-85
2021/01/04 04:34:14;;;;;;;47.72;23.73;;;3.10;90.50;;;;;;5032001;28;20029;-84
2021/01/04 04:36:42;;;;;;;48.63;24.73;;;3.10;90.40;;;;;;5035169;28;20036;-84
2021/01/04 04:39:13;;;;;;;46.67;25.42;;;3.10;90.30;;;;;;5033809;28;20160;-84
2021/01/04 04:41:40;;;;;;;;;;;3.10;90.40;;;;;;5034344;28;20030;-85
2021/01/04 04:44:26;;;;;;;51.10;25.25;;;3.10;90.40;;;;;;5038408;28;19905;-85
2021/01/04 04:46:52;;;;;;;52.40;26.70;;;3.10;90.30;;;;;;5054788;28;20029;-85
2021/01/04 04:49:46;;;;;;;48.13;25.92;;;3.00;90.30;;;;;;5054151;28;20023;-85
2021/01/04 04:52:38;;;;;;;45.10;24.08;;;3.10;90.30;;;;;;5054159;28;20025;-85
2021/01/04 04:55:30;;;;;;;47.58;25.45;;;3.10;90.30;;;;;;5048005;28;20029;-85
2021/01/04 04:58:14;;;;;;;53.30;28.17;;;3.10;90.30;;;;;;5033210;28;20042;-85
2021/01/04 05:01:04;;;;;;;55.13;27.85;;;2.90;90.30;;;;;;5027923;28;20067;-84
2021/01/04 05:03:48;;;;;;;55.63;27.50;;;3.00;90.50;;;;;;5054958;28;20455;-85
2021/01/04 05:06:40;;;;;;;55.40;29.20;;;3.00;90.60;;;;;;5054881;28;20108;-85
2021/01/04 05:09:24;;;;;;;56.95;26.83;;;3.00;90.40;;;;;;5053693;28;20021;-84
2021/01/04 05:12:07;;;;;;;58.53;29.30;;;3.00;90.40;;;;;;5045526;28;20041;-84
2021/01/04 05:14:35;;;;;;;58.40;27.88;;;2.90;90.20;;;;;;5013814;28;20034;-84
2021/01/04 05:17:22;;;;;;;58.22;28.33;;;2.90;90.30;;;;;;5014372;28;20091;-84
2021/01/04 05:20:09;;;;;;;54.55;27.42;;;2.90;90.30;;;;;;5013222;28;20022;-84
2021/01/04 05:22:49;;;;;;;60.67;29.42;;;3.00;90.30;;;;;;5013875;28;20025;-84
2021/01/04 05:25:57;;;;;;;63.17;30.58;;;2.90;90.20;;;;;;5014818;28;20022;-85
2021/01/04 05:29:01;;;;;;;54.55;26.08;;;2.90;90.20;;;;;;4982194;28;20124;-85
2021/01/04 05:31:40;;;;;;;59.85;27.75;;;2.90;90.20;;;;;;5032819;28;20013;-85
2021/01/04 05:34:21;;;;;;;58.80;28.55;;;2.90;90.20;;;;;;5053967;28;20017;-85
2021/01/04 05:36:49;;;;;;;66.57;30.70;;;3.00;90.10;;;;;;5049046;28;20017;-85
2021/01/04 05:39:22;;;;;;;65.97;29.98;;;2.90;90.20;;;;;;5053421;28;20028;-85
2021/01/04 05:42:18;;;;;;;64.30;29.58;;;3.00;90.10;;;;;;5052609;28;20029;-86
2021/01/04 05:44:53;;;;;;;69.22;30.63;;;3.00;90.10;;;;;;5042844;28;20025;-85
2021/01/04 05:47:54;;;;;;;60.95;26.75;;;3.00;90.10;;;;;;5033090;28;20037;-85
2021/01/04 05:50:25;;;;;;;;;;;3.00;90.10;;;;;;5020061;28;20045;-85
2021/01/04 05:52:55;;;;;;;66.00;27.70;;;3.00;90.00;;;;;;5033592;28;20342;-85
2021/01/04 05:55:22;;;;;;;62.25;30.90;;;3.00;90.00;;;;;;5049204;28;20613;-85
2021/01/04 05:57:51;;;;;;;69.68;32.67;;;3.00;89.80;;;;;;5040489;28;20490;-84
2021/01/04 06:00:35;;;;;;;73.65;32.63;;;3.00;89.80;;;;;;5047117;28;20487;-85
2021/01/04 06:03:10;;;;;;;72.28;31.67;;;2.90;89.70;;;;;;5046791;28;20107;-85
2021/01/04 06:05:37;;;;;;;74.93;34.42;;;3.00;90.30;;;;;;5052279;28;20367;-85
2021/01/04 06:08:04;;;;;;;70.68;33.30;;;3.00;90.00;;;;;;5052024;28;20047;-85
2021/01/04 06:10:32;;;;;;;79.25;36.55;;;3.00;90.00;;;;;;5040434;28;20034;-85
2021/01/04 06:12:58;;;;;;;89.22;39.65;;;3.00;90.00;;;;;;5042814;28;20076;-85
2021/01/04 06:15:34;;;;;;;78.95;37.88;;;3.00;90.00;;;;;;5032105;28;20026;-85
2021/01/04 06:18:06;;;;;;;81.13;36.60;;;3.00;90.00;;;;;;5025612;28;20084;-85
2021/01/04 06:20:44;;;;;;;93.75;41.17;;;3.00;90.00;;;;;;5012852;28;20053;-81
2021/01/04 06:23:29;;;;;;;73.85;34.83;;;3.00;89.80;;;;;;5054171;28;20032;-81
2021/01/04 06:26:02;;;;;;;77.85;35.17;;;3.10;90.00;;;;;;5051368;28;20029;-82
2021/01/04 06:28:28;;;;;;;69.40;32.33;;;3.10;90.00;;;;;;5051620;28;20443;-81
2021/01/04 06:31:07;;;;;;;73.28;34.60;;;3.20;90.00;;;;;;5051571;28;20139;-81
2021/01/04 06:33:34;;;;;;;78.75;35.60;;;3.10;90.00;;;;;;5051659;28;20033;-81
2021/01/04 06:36:04;;;;;;;75.03;34.10;;;3.10;89.80;;;;;;5051602;28;20070;-82
2021/01/04 06:38:32;;;;;;;73.95;34.75;;;3.20;89.90;;;;;;5034572;28;20136;-82
2021/01/04 06:41:08;;;;;;;80.90;35.88;;;3.20;89.80;;;;;;5022941;28;20032;-82
2021/01/04 06:43:36;;;;;;;78.97;36.78;;;3.10;89.80;;;;;;5014893;28;20105;-81
2021/01/04 06:46:20;;;;;;;82.50;36.40;;;3.10;89.40;;;;;;5030367;28;20099;-81
2021/01/04 06:48:50;;;;;;;75.97;34.05;;;3.20;89.80;;;;;;5048758;28;20039;-81
2021/01/04 06:51:31;;;;;;;72.10;32.35;;;3.20;89.80;;;;;;5022862;28;20088;-82
2021/01/04 06:54:21;;;;;;;79.03;34.53;;;3.20;89.70;;;;;;5052153;28;20506;-82
2021/01/04 06:56:56;;;;;;;81.57;37.07;;;3.20;89.70;;;;;;5035629;28;20056;-82
2021/01/04 07:00:04;;;;;;;88.88;39.03;;;3.20;89.90;;;;;;5027092;28;20267;-82
2021/01/04 07:03:16;;;;;;;84.82;35.63;;;3.00;89.50;;;;;;5034939;28;20061;-82
2021/01/04 07:05:50;;;;;;;79.13;33.60;;;3.10;90.00;;;;;;5031289;28;20088;-78
2021/01/04 07:08:54;;;;;;;84.88;36.08;;;3.10;90.00;;;;;;5040640;28;20026;-78
2021/01/04 07:11:29;;;;;;;88.82;38.80;;;3.20;90.00;;;;;;5034102;28;20026;-80
2021/01/04 07:14:12;;;;;;;75.70;35.25;;;3.10;89.80;;;;;;5026303;28;20022;-78
2021/01/04 07:17:09;;;;;;;89.43;38.88;;;3.20;89.90;;;;;;5025976;28;20030;-78
2021/01/04 07:20:07;;;;;;;95.82;41.20;;;3.20;89.30;;;;;;5037545;28;20034;-78
2021/01/04 07:22:38;;;;;;;87.93;39.75;;;3.20;89.50;;;;;;5044257;28;20089;-81
2021/01/04 07:25:34;;;;;;;89.15;39.97;;;3.20;89.70;;;;;;5033074;28;20030;-84
2021/01/04 07:28:21;;;;;;;89.07;39.13;;;3.20;89.60;;;;;;5044211;28;20379;-83
2021/01/04 07:31:01;;;;;;;92.18;41.08;;;3.20;89.80;;;;;;5036753;28;20029;-85
2021/01/04 07:33:33;;;;;;;85.28;37.92;;;3.20;89.50;;;;;;5021870;28;20472;-88
2021/01/04 07:36:38;;;;;;;81.60;37.15;;;3.30;89.70;;;;;;5016242;28;20041;-85
2021/01/04 07:39:16;;;;;;;93.22;41.65;;;3.40;89.50;;;;;;5036918;28;20084;-87
2021/01/04 07:42:20;;;;;;;90.43;40.70;;;3.30;88.70;;;;;;5032046;28;20493;-85
2021/01/04 07:45:08;;;;;;;90.88;40.63;;;3.30;88.90;;;;;;5006928;28;20036;-85
2021/01/04 07:47:52;;;;;;;83.28;38.92;;;3.30;88.80;;;;;;5006627;28;20036;-85
2021/01/04 07:50:47;;;;;;;81.53;38.58;;;3.30;89.30;;;;;;5032961;28;20013;-85
2021/01/04 07:53:25;;;;;;;78.32;37.95;;;3.40;89.10;;;;;;5026449;28;20132;-84
2021/01/04 07:56:28;;;;;;;84.28;38.42;;;3.40;88.70;;;;;;5023986;28;20052;-85
2021/01/04 07:59:32;;;;;;;74.18;36.92;;;3.40;88.70;;;;;;5033306;28;20448;-85
2021/01/04 08:02:16;;;;;;;79.38;37.30;;;3.40;89.00;;;;;;5035325;28;20356;-85
2021/01/04 08:04:55;;;;;;;86.07;40.25;;;3.40;88.60;;;;;;5034238;28;20018;-84
2021/01/04 08:07:47;;;;;;;88.97;41.80;;;3.40;88.00;;;;;;5034552;28;20469;-85
2021/01/04 08:10:42;;;;;;;79.43;36.17;;;3.30;88.20;;;;;;5034434;28;20207;-84
2021/01/04 08:13:30;;;;;;;85.85;40.13;;;3.40;88.60;;;;;;5034217;28;20044;-85
2021/01/04 08:16:03;;;;;;;79.78;37.35;;;3.40;88.20;;;;;;5034165;28;20025;-84
2021/01/04 08:18:31;;;;;;;77.63;35.60;;;3.40;88.60;;;;;;5034236;28;20033;-84
2021/01/04 08:21:00;;;;;;;75.97;35.55;;;3.50;88.70;;;;;;5034292;28;20024;-84
2021/01/04 08:23:38;;;;;;;79.20;38.65;;;3.50;88.60;;;;;;5034243;28;20402;-84
2021/01/04 08:26:15;;;;;;;81.88;39.55;;;3.50;88.20;;;;;;5034372;28;20391;-84
2021/01/04 08:29:09;;;;;;;74.70;36.15;;;3.50;88.60;;;;;;5034089;28;20025;-84
2021/01/04 08:31:40;;;;;;;77.22;36.90;;;3.60;88.70;;;;;;5033951;28;20356;-85
2021/01/04 08:34:08;;;;;;;84.90;42.70;;;3.60;88.60;;;;;;5033914;28;20029;-84
2021/01/04 08:36:55;;;;;;;74.28;36.30;;;3.60;88.40;;;;;;5033689;28;20029;-84
2021/01/04 08:39:21;;;;;;;78.28;37.22;;;3.70;88.30;;;;;;5033764;28;20026;-85
2021/01/04 08:42:02;;;;;;;80.35;38.83;;;3.70;88.00;;;;;;5033663;28;20032;-84
2021/01/04 08:44:29;;;;;;;81.13;38.05;;;3.80;87.80;;;;;;5033427;28;20025;-84
2021/01/04 08:47:29;;;;;;;85.95;39.67;;;3.80;88.30;;;;;;5033632;28;20024;-84
2021/01/04 08:50:35;;;;;;;78.32;36.88;;;3.80;88.10;;;;;;5031048;28;20040;-85
2021/01/04 08:53:20;;;;;;;85.72;39.28;;;3.80;88.60;;;;;;5034000;28;20017;-84
2021/01/04 08:55:47;;;;;;;84.03;39.22;;;3.80;87.80;;;;;;5035174;28;20034;-84
2021/01/04 08:58:30;;;;;;;77.72;37.72;;;3.90;88.10;;;;;;5034012;28;20045;-84
2021/01/04 09:01:17;;;;;;;84.50;39.53;;;3.90;87.90;;;;;;5035089;28;20017;-84
2021/01/04 09:03:43;;;;;;;82.47;39.00;;;4.00;87.90;;;;;;5033839;28;20026;-85
2021/01/04 09:06:34;;;;;;;102.07;48.85;;;4.00;87.90;;;;;;5033825;28;20079;-85
2021/01/04 09:09:09;;;;;;;124.57;56.78;;;4.10;86.40;;;;;;5033687;28;20037;-85
2021/01/04 09:11:40;;;;;;;183.07;70.80;;;4.00;86.10;;;;;;5033636;28;20033;-84
2021/01/04 09:14:38;;;;;;;188.68;72.53;;;4.10;86.70;;;;;;5034697;28;20598;-85
2021/01/04 09:17:34;;;;;;;171.55;69.45;;;4.10;86.10;;;;;;5032990;28;20041;-85
2021/01/04 09:20:09;;;;;;;145.52;58.88;;;4.10;85.20;;;;;;5033368;28;20430;-85
2021/01/04 09:22:35;;;;;;;150.70;62.05;;;4.20;86.60;;;;;;5033410;28;20017;-85
2021/01/04 09:25:01;;;;;;;132.80;54.80;;;4.20;86.40;;;;;;5034610;28;20097;-85
2021/01/04 09:27:35;;;;;;;135.73;54.58;;;4.30;86.50;;;;;;5033260;28;20049;-86
2021/01/04 09:30:07;;;;;;;142.68;58.95;;;4.40;86.40;;;;;;5033369;28;20025;-85
2021/01/04 09:32:39;;;;;;;154.90;62.55;;;4.40;86.00;;;;;;5033175;28;20065;-85
2021/01/04 09:35:15;;;;;;;136.32;57.25;;;4.40;85.70;;;;;;5033202;28;20029;-85
2021/01/04 09:37:41;;;;;;;136.00;55.75;;;4.40;85.70;;;;;;5033583;28;20116;-84
2021/01/04 09:40:15;;;;;;;129.07;53.00;;;4.40;85.50;;;;;;5033167;28;20025;-85
2021/01/04 09:42:41;;;;;;;109.00;44.90;;;4.50;86.00;;;;;;5033100;28;20156;-85
2021/01/04 09:45:11;;;;;;;76.32;35.90;;;4.50;85.80;;;;;;5034411;28;20049;-85
2021/01/04 09:48:06;;;;;;;70.53;33.35;;;4.50;85.40;;;;;;5032733;28;20022;-84
2021/01/04 09:51:00;;;;;;;66.18;31.52;;;4.40;84.30;;;;;;5029421;28;20026;-83
2021/01/04 09:56:40;;;;;;;56.92;26.20;;;4.40;83.70;;;;;;5083230;27;20443;-85
2021/01/04 09:59:37;;;;;;;50.28;26.30;;;4.50;84.90;;;;;;5052568;28;20096;-85
2021/01/04 10:02:05;;;;;;;49.40;24.75;;;4.50;84.40;;;;;;5049363;28;20026;-85
2021/01/04 10:04:36;;;;;;;45.42;24.35;;;4.50;84.60;;;;;;5049161;28;20025;-85
2021/01/04 10:07:05;;;;;;;49.78;25.02;;;4.60;85.00;;;;;;5049118;28;20031;-84
2021/01/04 10:09:33;;;;;;;43.08;23.10;;;4.60;84.80;;;;;;5048995;28;20030;-85
2021/01/04 10:12:05;;;;;;;47.95;23.70;;;4.60;84.70;;;;;;5049257;28;20029;-86
2021/01/04 10:14:32;;;;;;;52.15;26.05;;;4.60;84.50;;;;;;5049298;28;20076;-86
2021/01/04 10:17:00;;;;;;;51.90;26.75;;;4.60;84.70;;;;;;5049317;28;20025;-86
2021/01/04 10:19:34;;;;;;;51.53;25.92;;;4.70;84.60;;;;;;5049544;28;20017;-86
2021/01/04 10:22:15;;;;;;;51.45;26.80;;;4.70;84.50;;;;;;5049505;28;20021;-86
2021/01/04 10:24:57;;;;;;;58.83;29.83;;;4.70;84.50;;;;;;5049798;28;20103;-85
2021/01/04 10:27:25;;;;;;;61.42;30.40;;;4.60;83.80;;;;;;5049406;28;20029;-86
2021/01/04 10:29:53;;;;;;;64.10;32.35;;;4.60;84.30;;;;;;5049497;28;20025;-85
2021/01/04 10:32:27;;;;;;;66.97;33.63;;;4.70;84.70;;;;;;5049068;28;20030;-85
2021/01/04 10:34:54;;;;;;;63.08;32.05;;;4.70;84.60;;;;;;5048808;28;20034;-87
2021/01/04 10:37:52;;;;;;;66.00;34.00;;;4.70;84.70;;;;;;5048843;28;20021;-85
2021/01/04 10:40:21;;;;;;;71.97;35.80;;;4.70;84.10;;;;;;5049948;28;20072;-85
2021/01/04 10:42:58;;;;;;;72.93;36.17;;;4.70;84.20;;;;;;5048975;28;20364;-85
2021/01/04 10:45:39;;;;;;;72.43;36.42;;;4.70;84.30;;;;;;5048829;28;20116;-85
2021/01/04 10:48:07;;;;;;;66.72;33.67;;;4.60;83.70;;;;;;5049668;28;20029;-86
2021/01/04 10:50:42;;;;;;;65.65;32.58;;;4.60;84.30;;;;;;5049618;28;20125;-86
2021/01/04 10:53:26;;;;;;;63.55;33.17;;;4.50;84.30;;;;;;5053821;28;20033;-86
2021/01/04 10:56:16;;;;;;;62.95;31.27;;;4.60;84.60;;;;;;5064043;28;20144;-85
2021/01/04 10:58:51;;;;;;;69.35;33.38;;;4.60;84.60;;;;;;5050062;28;20112;-86
2021/01/04 11:01:23;;;;;;;63.97;31.23;;;4.60;84.90;;;;;;5049282;28;20067;-86
2021/01/04 11:03:54;;;;;;;58.38;30.75;;;4.70;84.90;;;;;;5050336;28;20594;-86
2021/01/04 11:06:41;;;;;;;63.97;32.95;;;4.70;84.50;;;;;;5044033;28;20056;-86
2021/01/04 11:09:20;;;;;;;59.15;30.17;;;4.70;83.90;;;;;;5037244;28;20025;-85
2021/01/04 11:12:02;;;;;;;57.90;28.92;;;4.70;84.50;;;;;;5035652;28;20036;-85
2021/01/04 11:14:29;;;;;;;59.20;30.40;;;4.70;84.50;;;;;;5035945;28;20034;-84
2021/01/04 11:17:19;;;;;;;57.08;29.65;;;4.60;84.20;;;;;;5035631;28;20475;-85
2021/01/04 11:19:46;;;;;;;57.75;28.67;;;4.60;84.20;;;;;;5035267;28;20033;-85
2021/01/04 11:22:23;;;;;;;66.93;35.33;;;4.50;84.30;;;;;;5035388;28;20378;-86
2021/01/04 11:24:49;;;;;;;70.55;34.08;;;4.50;84.20;;;;;;5035238;28;20025;-84
2021/01/04 11:27:15;;;;;;;59.55;29.85;;;4.40;84.20;;;;;;5036080;28;20029;-86
2021/01/04 11:29:42;;;;;;;54.33;28.08;;;4.30;84.30;;;;;;5036225;28;20029;-85
2021/01/04 11:32:10;;;;;;;59.45;29.55;;;4.30;84.60;;;;;;5036584;28;20088;-86
2021/01/04 11:34:36;;;;;;;59.15;28.27;;;4.30;84.50;;;;;;5034760;28;20033;-85
2021/01/04 11:37:01;;;;;;;56.75;28.42;;;4.20;84.30;;;;;;5034952;28;20387;-84
2021/01/04 11:39:27;;;;;;;60.10;30.80;;;4.10;84.50;;;;;;5034848;28;20021;-84
2021/01/04 11:41:53;;;;;;;66.57;31.20;;;4.10;84.70;;;;;;5034808;28;20025;-84
2021/01/04 11:44:19;;;;;;;59.60;29.40;;;4.00;84.70;;;;;;5034973;28;20032;-85
2021/01/04 11:46:45;;;;;;;53.25;28.77;;;3.90;85.00;;;;;;5035276;28;20032;-86
2021/01/04 11:49:11;;;;;;;57.13;30.35;;;3.90;85.10;;;;;;5034004;28;20044;-85
2021/01/04 11:51:37;;;;;;;55.85;30.17;;;3.90;85.40;;;;;;5035243;28;20464;-85
2021/01/04 11:54:06;;;;;;;51.90;27.45;;;3.90;85.40;;;;;;5033844;28;20529;-85
2021/01/04 11:56:32;;;;;;;55.60;31.08;;;3.80;85.40;;;;;;5034260;28;20064;-84
2021/01/04 11:58:58;;;;;;;52.10;26.98;;;3.80;85.60;;;;;;5035277;28;20460;-84
2021/01/04 12:01:27;;;;;;;47.83;25.08;;;3.80;85.70;;;;;;5033926;28;20057;-84
2021/01/04 12:03:54;;;;;;;50.67;25.42;;;3.80;85.70;;;;;;5033913;28;20040;-84
2021/01/04 12:06:20;;;;;;;52.03;26.35;;;3.90;85.80;;;;;;5033980;28;20049;-84
2021/01/04 12:08:46;;;;;;;50.22;25.35;;;3.80;85.60;;;;;;5034042;28;20025;-84
2021/01/04 12:11:12;;;;;;;48.90;26.17;;;3.80;85.60;;;;;;5035069;28;20022;-83
2021/01/04 12:13:38;;;;;;;47.92;24.45;;;3.80;85.60;;;;;;5034834;28;20083;-85
2021/01/04 12:16:04;;;;;;;46.67;24.27;;;3.70;85.70;;;;;;5033620;28;20037;-84
2021/01/04 12:18:30;;;;;;;50.92;24.90;;;3.80;85.90;;;;;;5032989;28;20021;-84
2021/01/04 12:20:56;;;;;;;39.85;21.65;;;3.70;85.80;;;;;;5033932;28;20028;-83
2021/01/04 12:23:21;;;;;;;42.38;22.42;;;3.70;86.00;;;;;;5034161;28;20383;-77
2021/01/04 12:25:47;;;;;;;51.88;25.02;;;3.70;86.20;;;;;;5033227;28;20112;-78
2021/01/04 12:28:13;;;;;;;42.85;21.90;;;3.70;86.20;;;;;;5034417;28;20068;-83
2021/01/04 12:30:39;;;;;;;42.13;22.33;;;3.70;86.20;;;;;;5033612;28;20485;-84
2021/01/04 12:33:05;;;;;;;48.75;22.70;;;3.70;86.20;;;;;;5033602;28;20116;-85
2021/01/04 12:35:31;;;;;;;41.95;21.98;;;3.70;86.20;;;;;;5033621;28;20112;-84
2021/01/04 12:37:57;;;;;;;41.17;20.42;;;3.70;86.20;;;;;;5033874;28;20095;-85
2021/01/04 12:40:29;;;;;;;41.67;22.10;;;3.60;86.10;;;;;;5040872;28;20088;-85
2021/01/04 12:42:57;;;;;;;43.72;23.00;;;3.60;86.20;;;;;;5044889;28;20167;-84
2021/01/04 12:45:23;;;;;;;42.95;22.30;;;3.60;86.30;;;;;;5033225;28;20025;-85
2021/01/04 12:47:49;;;;;;;42.80;22.02;;;3.60;86.30;;;;;;5033852;28;20464;-88
2021/01/04 12:50:15;;;;;;;36.97;20.20;;;3.60;86.40;;;;;;5035282;28;20049;-87
2021/01/04 12:52:41;;;;;;;37.67;21.45;;;3.60;86.30;;;;;;5033956;28;20434;-85
2021/01/04 12:55:07;;;;;;;33.40;18.35;;;3.50;86.20;;;;;;5033126;28;20483;-87
2021/01/04 12:57:33;;;;;;;43.30;21.15;;;3.50;86.20;;;;;;5033729;28;20025;-84
2021/01/04 12:59:59;;;;;;;41.58;21.02;;;3.50;86.30;;;;;;5033456;28;20083;-85
2021/01/04 13:02:25;;;;;;;40.53;21.20;;;3.50;86.50;;;;;;5033160;28;20041;-85
2021/01/04 13:04:51;;;;;;;38.28;20.23;;;3.40;86.20;;;;;;5033092;28;20030;-84
2021/01/04 13:07:17;;;;;;;43.20;21.55;;;3.40;86.30;;;;;;5033312;28;20040;-85
2021/01/04 13:09:43;;;;;;;35.10;19.50;;;3.30;86.50;;;;;;5033135;28;20167;-84
2021/01/04 13:12:09;;;;;;;35.95;19.15;;;3.30;86.50;;;;;;5033067;28;20029;-84
2021/01/04 13:14:35;;;;;;;33.60;18.77;;;3.30;86.40;;;;;;5032906;28;20136;-82
2021/01/04 13:17:01;;;;;;;34.42;18.70;;;3.20;86.40;;;;;;5032860;28;20061;-84
2021/01/04 13:19:29;;;;;;;37.30;21.00;;;3.20;86.50;;;;;;5032911;28;20052;-84
2021/01/04 13:21:56;;;;;;;38.50;21.48;;;3.10;86.50;;;;;;5032926;28;20116;-85
2021/01/04 13:24:22;;;;;;;37.40;20.10;;;3.10;86.70;;;;;;5032934;28;20485;-86
2021/01/04 13:26:50;;;;;;;36.40;20.52;;;3.00;86.70;;;;;;5032918;28;20021;-85
2021/01/04 13:29:19;;;;;;;38.30;20.67;;;3.00;86.90;;;;;;5032930;28;20080;-86